Time;durP1;ratioP1;P1;durP2;ratioP2;P2;SDS_P1;SDS_P2;PMS_P1;PMS_P2;Temp;Humidity;BMP_temperature;BMP_pressure;BME280_temperature;BME280_humidity;BME280_pressure;Samples;Min_cycle;Max_cycle;Signal;HPM_P1;HPM_P2
2023/02/08 00:02:04;;;;;;;29.23;18.37;;;-2.50;99.00;;;;;;5039456;27;20748;-69
2023/02/08 00:04:31;;;;;;;28.93;20.43;;;-2.50;84.60;;;;;;5037515;28;20565;-69
2023/02/08 00:06:58;;;;;;;27.90;19.60;;;-2.60;59.10;;;;;;5042347;28;20464;-68
2023/02/08 00:09:26;;;;;;;28.30;18.23;;;-2.60;36.70;;;;;;5027574;28;20565;-69
2023/02/08 00:11:53;;;;;;;27.97;19.23;;;-2.60;38.70;;;;;;5036658;28;20531;-68
2023/02/08 00:14:20;;;;;;;25.53;20.53;;;-2.60;54.80;;;;;;5037353;28;20503;-68
2023/02/08 00:16:48;;;;;;;29.57;21.50;;;-2.60;81.40;;;;;;5047105;28;20827;-69
2023/02/08 00:19:16;;;;;;;36.40;22.50;;;-2.60;99.90;;;;;;5038765;28;20554;-68
2023/02/08 00:21:44;;;;;;;31.77;21.00;;;-2.50;99.90;;;;;;5030275;28;20430;-69
2023/02/08 00:24:12;;;;;;;32.23;22.47;;;-2.60;99.90;;;;;;5039962;27;20540;-68
2023/02/08 00:26:39;;;;;;;34.80;22.20;;;-2.60;99.90;;;;;;5042613;28;20861;-68
2023/02/08 00:29:06;;;;;;;33.20;22.83;;;-2.70;96.10;;;;;;5035126;28;20460;-68
2023/02/08 00:31:34;;;;;;;33.40;22.43;;;-2.70;99.90;;;;;;5028371;28;20449;-68
2023/02/08 00:34:01;;;;;;;32.60;22.77;;;-2.70;99.90;;;;;;5036732;28;20478;-68
2023/02/08 00:36:30;;;;;;;28.20;20.70;;;-2.70;99.90;;;;;;5040914;28;20939;-68
2023/02/08 00:38:57;;;;;;;27.07;21.80;;;-2.80;99.90;;;;;;5050467;28;20481;-67
2023/02/08 00:41:25;;;;;;;30.30;20.73;;;-2.80;99.90;;;;;;5071878;28;20969;-68
2023/02/08 00:43:52;;;;;;;32.90;22.57;;;-2.70;99.90;;;;;;5079205;28;20553;-68
2023/02/08 00:46:20;;;;;;;31.13;22.57;;;-2.80;94.10;;;;;;5044943;28;20471;-68
2023/02/08 00:48:48;;;;;;;28.50;21.20;;;-2.80;94.40;;;;;;5055267;28;20467;-68
2023/02/08 00:51:15;;;;;;;28.77;21.63;;;-2.80;90.00;;;;;;5088269;28;20471;-68
2023/02/08 00:53:46;;;;;;;36.30;25.13;;;-2.80;72.60;;;;;;5036068;28;20590;-67
2023/02/08 00:56:15;;;;;;;33.00;22.63;;;-2.90;58.80;;;;;;5029423;28;20568;-68
2023/02/08 00:58:43;;;;;;;31.87;21.93;;;-2.90;90.60;;;;;;5036706;28;20529;-67
2023/02/08 01:01:11;;;;;;;28.27;21.07;;;-2.80;99.40;;;;;;5030245;28;20537;-68
2023/02/08 01:03:41;;;;;;;32.13;21.83;;;-2.90;99.90;;;;;;5043384;28;20558;-68
2023/02/08 01:06:10;;;;;;;28.77;20.80;;;-2.90;99.90;;;;;;5041904;28;20463;-68
2023/02/08 01:08:38;;;;;;;26.50;20.60;;;-3.00;89.70;;;;;;5017022;28;20543;-68
2023/02/08 01:11:10;;;;;;;31.30;21.53;;;-3.00;92.30;;;;;;5054248;28;20898;-68
2023/02/08 01:13:38;;;;;;;27.27;20.17;;;-2.90;99.90;;;;;;5078849;28;20496;-68
2023/02/08 01:16:11;;;;;;;31.57;21.23;;;-2.90;99.90;;;;;;5038753;28;20988;-68
2023/02/08 01:18:39;;;;;;;30.17;21.50;;;-2.90;99.90;;;;;;5033965;28;20475;-68
2023/02/08 01:21:07;;;;;;;26.37;19.40;;;-2.90;94.70;;;;;;5038106;27;20554;-68
2023/02/08 01:23:35;;;;;;;26.50;18.33;;;-3.00;92.90;;;;;;5039043;27;20545;-68
2023/02/08 01:26:03;;;;;;;28.37;19.20;;;-3.10;63.20;;;;;;5043304;27;20595;-68
2023/02/08 01:28:32;;;;;;;27.47;18.90;;;-3.00;98.50;;;;;;5122359;27;20533;-68
2023/02/08 01:31:00;;;;;;;24.73;17.97;;;-3.00;90.90;;;;;;5065740;27;20846;-68
2023/02/08 01:33:27;;;;;;;21.00;15.77;;;-3.00;55.70;;;;;;5089953;27;20486;-68
2023/02/08 01:35:55;;;;;;;21.83;14.93;;;-2.90;12.30;;;;;;5033269;27;20485;-68
2023/02/08 01:38:22;;;;;;;17.70;13.43;;;-2.90;1.00;;;;;;5092818;27;20590;-67
2023/02/08 01:40:50;;;;;;;23.80;13.80;;;-3.00;1.00;;;;;;5031773;27;20565;-68
2023/02/08 01:43:22;;;;;;;17.53;13.20;;;-3.00;1.00;;;;;;5033646;28;20467;-67
2023/02/08 01:45:51;;;;;;;18.10;11.50;;;-3.00;1.00;;;;;;5044896;27;20519;-68
2023/02/08 01:48:23;;;;;;;16.03;11.40;;;-2.90;1.00;;;;;;5090315;27;20541;-68
2023/02/08 01:50:55;;;;;;;17.40;13.07;;;-3.00;1.00;;;;;;5036115;28;20565;-67
2023/02/08 01:53:24;;;;;;;17.20;11.77;;;-3.00;1.00;;;;;;5032371;28;20590;-67
2023/02/08 01:55:56;;;;;;;17.60;10.47;;;-3.10;1.00;;;;;;5031706;28;20461;-67
2023/02/08 01:58:26;;;;;;;16.90;11.17;;;-3.00;1.00;;;;;;5034769;27;20500;-67
2023/02/08 02:00:55;;;;;;;14.30;10.10;;;-3.00;1.00;;;;;;5100805;27;20466;-67
2023/02/08 02:03:25;;;;;;;14.70;8.70;;;-3.00;1.00;;;;;;5083501;27;20482;-67
2023/02/08 02:05:56;;;;;;;15.10;9.90;;;-3.00;1.00;;;;;;5026084;28;20505;-67
2023/02/08 02:08:23;;;;;;;12.50;9.53;;;-3.00;1.00;;;;;;5075613;27;20541;-68
2023/02/08 02:10:50;;;;;;;11.77;8.87;;;-3.10;1.00;;;;;;5045481;27;20493;-67
2023/02/08 02:13:21;;;;;;;13.50;9.03;;;-3.00;1.00;;;;;;5029073;28;20453;-68
2023/02/08 02:15:49;;;;;;;12.53;8.37;;;-3.10;1.00;;;;;;5035004;28;20926;-67
2023/02/08 02:18:23;;;;;;;12.00;8.07;;;-3.10;1.00;;;;;;5034045;28;20501;-68
2023/02/08 02:21:08;;;;;;;13.30;9.10;;;-3.10;1.00;;;;;;5063532;27;20458;-68
2023/02/08 02:24:00;;;;;;;10.43;7.93;;;-3.10;1.00;;;;;;5016638;28;20740;-68
2023/02/08 02:26:51;;;;;;;14.50;9.50;;;-3.10;1.00;;;;;;5016098;28;20559;-67
2023/02/08 02:30:00;;;;;;;13.67;9.70;;;-3.10;1.00;;;;;;5015990;28;20468;-67
2023/02/08 02:32:43;;;;;;;14.17;8.60;;;-3.10;1.00;;;;;;5016482;28;20468;-67
2023/02/08 02:35:19;;;;;;;11.67;7.70;;;-3.10;1.00;;;;;;5016195;28;20479;-67
2023/02/08 02:37:56;;;;;;;12.80;8.60;;;-3.10;1.00;;;;;;5016151;28;20517;-67
2023/02/08 02:40:31;;;;;;;12.50;7.97;;;-3.10;1.00;;;;;;5031418;28;20462;-67
2023/02/08 02:45:58;;;;;;;12.50;8.60;;;-3.20;1.00;;;;;;5028610;27;20956;-67
2023/02/08 02:48:35;;;;;;;12.23;8.73;;;-3.20;1.00;;;;;;5035617;28;20489;-67
2023/02/08 02:51:09;;;;;;;15.20;10.60;;;-3.30;1.00;;;;;;5035786;28;20558;-67
2023/02/08 02:53:45;;;;;;;17.63;11.13;;;-3.30;1.00;;;;;;5035717;28;20524;-67
2023/02/08 02:56:16;;;;;;;17.13;11.37;;;-3.10;1.00;;;;;;5035573;28;20546;-67
2023/02/08 02:58:45;;;;;;;16.90;11.90;;;-3.10;1.00;;;;;;5035613;28;20584;-68
2023/02/08 03:01:13;;;;;;;17.17;11.83;;;-3.10;1.00;;;;;;5035789;28;20801;-67
2023/02/08 03:03:42;;;;;;;16.40;11.90;;;-3.00;1.00;;;;;;5035939;28;20567;-67
2023/02/08 03:06:14;;;;;;;18.37;12.57;;;-3.30;1.00;;;;;;5035888;28;20467;-67
2023/02/08 03:09:15;;;;;;;19.50;12.33;;;-3.30;1.00;;;;;;5035131;28;20958;-67
2023/02/08 03:11:46;;;;;;;14.20;9.90;;;-3.30;1.00;;;;;;5032792;28;20907;-67
2023/02/08 03:14:33;;;;;;;15.37;10.50;;;-3.40;1.00;;;;;;5035146;28;20566;-67
2023/02/08 03:17:12;;;;;;;16.03;10.13;;;-3.50;1.00;;;;;;5035377;28;20535;-68
2023/02/08 03:19:46;;;;;;;15.47;9.70;;;-3.50;1.00;;;;;;5035800;28;20568;-66
2023/02/08 03:22:17;;;;;;;11.90;8.23;;;-3.50;1.00;;;;;;5035458;28;20789;-66
2023/02/08 03:24:50;;;;;;;13.30;9.13;;;-3.50;1.00;;;;;;5035402;28;20827;-66
2023/02/08 03:27:29;;;;;;;11.00;7.63;;;-3.60;1.00;;;;;;5035550;28;20438;-66
2023/02/08 03:30:01;;;;;;;10.40;7.83;;;-3.60;1.00;;;;;;5034771;28;20478;-66
2023/02/08 03:32:39;;;;;;;12.50;8.30;;;-3.50;1.00;;;;;;5035273;28;20758;-67
2023/02/08 03:35:15;;;;;;;12.63;9.47;;;-3.50;1.00;;;;;;5035166;28;20557;-66
2023/02/08 03:37:46;;;;;;;11.83;8.53;;;-3.50;1.00;;;;;;5035256;28;20533;-66
2023/02/08 03:40:17;;;;;;;14.33;8.77;;;-3.50;1.00;;;;;;5033173;28;20474;-66
2023/02/08 03:42:47;;;;;;;14.43;8.30;;;-3.50;1.00;;;;;;5035299;28;20549;-66
2023/02/08 03:45:20;;;;;;;10.17;7.60;;;-3.40;1.00;;;;;;5034732;28;20478;-66
2023/02/08 03:47:50;;;;;;;10.33;7.67;;;-3.40;1.00;;;;;;5034791;28;20480;-66
2023/02/08 03:50:21;;;;;;;12.47;8.70;;;-3.30;1.00;;;;;;5034577;28;20575;-66
2023/02/08 03:52:50;;;;;;;11.00;7.00;;;-3.30;1.00;;;;;;5034689;28;20558;-66
2023/02/08 03:55:22;;;;;;;12.30;7.87;;;-3.20;1.00;;;;;;5035164;28;20554;-66
2023/02/08 03:57:53;;;;;;;11.00;7.30;;;-3.30;1.00;;;;;;5034495;28;20495;-66
2023/02/08 04:00:22;;;;;;;12.23;7.50;;;-3.30;99.90;;;;;;5034502;28;20562;-66
2023/02/08 04:02:55;;;;;;;10.03;7.00;;;-3.50;99.90;;;;;;5034997;28;20462;-66
2023/02/08 04:05:27;;;;;;;9.37;6.97;;;-3.50;99.90;;;;;;5034243;28;20480;-66
2023/02/08 04:07:54;;;;;;;10.80;7.13;;;-3.50;99.90;;;;;;5034843;28;20810;-66
2023/02/08 04:10:21;;;;;;;14.13;7.63;;;-3.50;99.90;;;;;;5034410;28;20837;-66
2023/02/08 04:12:50;;;;;;;10.43;7.60;;;-3.40;99.90;;;;;;5034680;28;20495;-66
2023/02/08 04:15:18;;;;;;;11.73;7.57;;;-3.50;99.90;;;;;;5034519;28;20498;-66
2023/02/08 04:17:45;;;;;;;10.77;7.37;;;-3.50;99.90;;;;;;5034332;28;20539;-66
2023/02/08 04:20:13;;;;;;;9.70;6.77;;;-3.50;99.90;;;;;;5032362;28;20475;-66
2023/02/08 04:22:42;;;;;;;9.70;7.57;;;-3.40;99.90;;;;;;5034623;28;20955;-66
2023/02/08 04:25:10;;;;;;;10.37;6.87;;;-3.40;99.90;;;;;;5032689;28;20892;-66
2023/02/08 04:27:37;;;;;;;10.57;7.27;;;-3.60;99.90;;;;;;5034368;28;20459;-66
2023/02/08 04:30:06;;;;;;;12.17;7.20;;;-3.50;99.90;;;;;;5034177;28;20463;-66
2023/02/08 04:32:33;;;;;;;11.53;6.60;;;-3.60;99.90;;;;;;5034283;28;20883;-66
2023/02/08 04:35:01;;;;;;;10.90;7.47;;;-3.60;99.90;;;;;;5034667;28;20465;-66
2023/02/08 04:37:28;;;;;;;17.07;7.30;;;-3.60;99.90;;;;;;5034692;28;20862;-66
2023/02/08 04:39:57;;;;;;;11.23;7.57;;;-3.50;99.90;;;;;;5033582;27;20481;-67
2023/02/08 04:42:25;;;;;;;10.33;7.33;;;-3.50;99.90;;;;;;5034271;28;20506;-66
2023/02/08 04:44:53;;;;;;;8.13;6.30;;;-3.60;99.90;;;;;;5034204;28;20561;-66
2023/02/08 04:47:20;;;;;;;9.17;7.00;;;-3.50;99.90;;;;;;5034534;28;20466;-67
2023/02/08 04:49:48;;;;;;;11.33;7.27;;;-3.40;99.90;;;;;;5033878;28;20475;-67
2023/02/08 04:52:15;;;;;;;9.53;6.70;;;-3.50;99.90;;;;;;5036839;28;20467;-66
2023/02/08 04:54:42;;;;;;;9.57;6.60;;;-3.50;99.90;;;;;;5037544;28;20457;-66
2023/02/08 04:57:13;;;;;;;16.33;7.40;;;-3.40;99.90;;;;;;5037502;28;20939;-66
2023/02/08 04:59:40;;;;;;;10.43;7.50;;;-3.50;99.90;;;;;;5037904;28;20459;-66
2023/02/08 05:02:08;;;;;;;12.07;7.90;;;-3.60;99.90;;;;;;5052522;27;20467;-66
2023/02/08 05:04:37;;;;;;;9.27;6.40;;;-3.60;99.90;;;;;;5104574;27;20459;-66
2023/02/08 05:07:04;;;;;;;11.60;7.80;;;-3.70;99.90;;;;;;5053836;27;20775;-66
2023/02/08 05:09:32;;;;;;;10.73;7.27;;;-3.70;99.90;;;;;;5073619;27;20931;-67
2023/02/08 05:11:59;;;;;;;10.97;7.57;;;-3.80;99.90;;;;;;5056636;27;20506;-66
2023/02/08 05:14:29;;;;;;;14.67;8.13;;;-3.70;99.90;;;;;;5098113;27;20553;-66
2023/02/08 05:16:56;;;;;;;11.70;7.23;;;-3.70;99.90;;;;;;5056499;27;20475;-66
2023/02/08 05:19:24;;;;;;;13.97;7.63;;;-3.70;99.90;;;;;;5037081;28;20495;-66
2023/02/08 05:21:51;;;;;;;13.00;8.83;;;-3.80;99.90;;;;;;5037448;28;20932;-66
2023/02/08 05:24:18;;;;;;;12.13;8.30;;;-3.70;99.90;;;;;;5037225;28;20470;-66
2023/02/08 05:26:46;;;;;;;14.20;10.10;;;-3.70;99.90;;;;;;5037248;28;20538;-66
2023/02/08 05:29:14;;;;;;;11.07;8.67;;;-3.70;99.90;;;;;;5037105;28;20560;-66
2023/02/08 05:31:43;;;;;;;13.93;8.63;;;-3.80;99.90;;;;;;5055540;27;20520;-66
2023/02/08 05:34:11;;;;;;;11.10;7.47;;;-3.70;99.90;;;;;;5064613;27;20441;-66
2023/02/08 05:36:38;;;;;;;14.03;8.57;;;-3.70;99.90;;;;;;5045677;27;20478;-66
2023/02/08 05:39:06;;;;;;;13.43;8.40;;;-3.80;99.90;;;;;;5036646;28;20494;-66
2023/02/08 05:41:33;;;;;;;10.10;7.30;;;-3.80;99.90;;;;;;5035852;28;20467;-66
2023/02/08 05:44:00;;;;;;;16.00;7.40;;;-3.80;99.90;;;;;;5036126;28;20506;-66
2023/02/08 05:46:28;;;;;;;11.90;7.70;;;-3.90;99.90;;;;;;5036020;28;20499;-66
2023/02/08 05:48:57;;;;;;;10.80;6.97;;;-3.90;99.90;;;;;;5064891;27;20470;-66
2023/02/08 05:51:24;;;;;;;15.83;8.80;;;-3.80;99.90;;;;;;5032864;28;20896;-66
2023/02/08 05:53:52;;;;;;;10.20;7.80;;;-4.00;99.90;;;;;;5035577;28;20582;-66
2023/02/08 05:56:20;;;;;;;13.63;8.10;;;-3.90;99.90;;;;;;5037753;28;20463;-66
2023/02/08 05:58:47;;;;;;;29.80;10.90;;;-3.90;99.90;;;;;;5039209;27;20502;-66
2023/02/08 06:01:15;;;;;;;14.20;9.57;;;-3.90;99.90;;;;;;5039530;27;20560;-66
2023/02/08 06:03:42;;;;;;;16.43;8.77;;;-3.80;99.90;;;;;;5068469;27;20494;-66
2023/02/08 06:06:11;;;;;;;11.63;7.83;;;-3.80;99.90;;;;;;5074187;27;20605;-66
2023/02/08 06:08:39;;;;;;;10.17;7.13;;;-4.00;99.90;;;;;;5035129;28;20978;-66
2023/02/08 06:11:07;;;;;;;10.90;8.10;;;-3.90;99.90;;;;;;5032852;28;20485;-66
2023/02/08 06:13:34;;;;;;;12.17;7.47;;;-3.80;99.90;;;;;;5034005;28;20546;-66
2023/02/08 06:16:02;;;;;;;27.10;17.17;;;-3.70;99.90;;;;;;5033762;28;20802;-66
2023/02/08 06:18:30;;;;;;;15.13;9.67;;;-3.70;99.90;;;;;;5034703;28;20511;-66
2023/02/08 06:20:57;;;;;;;13.23;8.23;;;-3.60;99.90;;;;;;5034305;28;20590;-66
2023/02/08 06:23:27;;;;;;;31.10;15.93;;;-3.50;99.90;;;;;;5034406;28;20561;-67
2023/02/08 06:25:54;;;;;;;35.80;15.40;;;-3.40;99.90;;;;;;5034133;28;20470;-67
2023/02/08 06:28:22;;;;;;;22.00;13.83;;;-3.40;99.90;;;;;;5035816;28;20495;-67
2023/02/08 06:30:49;;;;;;;37.10;20.13;;;-3.40;99.90;;;;;;5035879;28;20557;-66
2023/02/08 06:33:17;;;;;;;43.27;21.40;;;-3.40;99.90;;;;;;5035522;28;20570;-66
2023/02/08 06:35:45;;;;;;;32.33;17.80;;;-3.40;99.90;;;;;;5035412;28;20979;-66
2023/02/08 06:38:13;;;;;;;34.37;18.67;;;-3.50;99.90;;;;;;5034629;28;20754;-65
2023/02/08 06:40:42;;;;;;;21.93;13.10;;;-3.50;99.90;;;;;;5035077;28;20557;-65
2023/02/08 06:43:09;;;;;;;17.23;11.07;;;-3.60;99.90;;;;;;5035734;28;20471;-65
2023/02/08 06:45:36;;;;;;;18.30;10.77;;;-3.70;99.90;;;;;;5036104;28;20550;-65
2023/02/08 06:48:05;;;;;;;18.67;11.23;;;-3.70;99.90;;;;;;5035653;28;20455;-65
2023/02/08 06:50:32;;;;;;;15.30;9.20;;;-3.70;99.90;;;;;;5036245;28;20954;-65
2023/02/08 06:52:59;;;;;;;12.80;8.43;;;-3.80;99.90;;;;;;5035926;28;20938;-65
2023/02/08 06:55:27;;;;;;;17.63;10.20;;;-3.80;99.90;;;;;;5035733;28;20546;-65
2023/02/08 06:57:56;;;;;;;13.60;9.30;;;-3.90;1.00;;;;;;5035314;28;20506;-65
2023/02/08 07:00:24;;;;;;;13.17;8.20;;;-3.80;1.00;;;;;;5035855;28;20841;-64
2023/02/08 07:02:52;;;;;;;15.23;10.77;;;-3.90;1.00;;;;;;5034988;28;20463;-65
2023/02/08 07:05:19;;;;;;;17.00;11.00;;;-3.90;1.00;;;;;;5035656;28;20463;-65
2023/02/08 07:07:47;;;;;;;19.90;12.20;;;-3.90;1.00;;;;;;5035199;28;20558;-65
2023/02/08 07:10:15;;;;;;;17.40;11.00;;;-3.90;1.00;;;;;;5035674;28;20878;-65
2023/02/08 07:12:42;;;;;;;14.60;10.17;;;-3.90;1.00;;;;;;5035210;28;20562;-65
2023/02/08 07:15:12;;;;;;;17.93;9.67;;;-4.00;1.00;;;;;;5035379;28;20884;-65
2023/02/08 07:17:40;;;;;;;12.97;8.77;;;-4.00;1.00;;;;;;5035154;28;20456;-65
2023/02/08 07:20:10;;;;;;;14.20;10.17;;;-4.00;1.00;;;;;;5035142;28;20503;-65
2023/02/08 07:22:37;;;;;;;15.30;9.40;;;-4.00;1.00;;;;;;5035595;28;20481;-64
2023/02/08 07:25:06;;;;;;;14.20;9.67;;;-4.00;1.00;;;;;;5035428;28;20489;-64
2023/02/08 07:27:33;;;;;;;15.07;10.30;;;-3.90;1.00;;;;;;5035417;28;20441;-65
2023/02/08 07:30:00;;;;;;;14.70;9.77;;;-3.90;1.00;;;;;;5034699;28;20581;-64
2023/02/08 07:32:29;;;;;;;21.70;12.13;;;-3.90;1.00;;;;;;5034513;28;20491;-64
2023/02/08 07:34:56;;;;;;;20.67;12.47;;;-3.90;1.00;;;;;;5034948;28;20470;-65
2023/02/08 07:37:23;;;;;;;29.03;16.53;;;-3.90;1.00;;;;;;5035141;28;20491;-65
2023/02/08 07:39:51;;;;;;;38.50;21.40;;;-3.90;1.00;;;;;;5033543;28;20841;-66
2023/02/08 07:42:19;;;;;;;43.40;22.73;;;-3.80;1.00;;;;;;5034889;28;20503;-66
2023/02/08 07:44:46;;;;;;;36.37;18.20;;;-3.70;1.00;;;;;;5034823;28;20464;-65
2023/02/08 07:47:13;;;;;;;38.27;19.50;;;-3.60;1.00;;;;;;5035056;28;20769;-65
2023/02/08 07:49:43;;;;;;;27.83;16.53;;;-3.50;1.00;;;;;;5035054;28;20459;-65
2023/02/08 07:52:10;;;;;;;32.13;16.53;;;-3.40;1.00;;;;;;5034613;28;20559;-65
2023/02/08 07:54:38;;;;;;;26.63;14.57;;;-3.40;1.00;;;;;;5034775;28;20573;-65
2023/02/08 07:57:05;;;;;;;23.00;13.63;;;-3.20;1.00;;;;;;5034896;28;20448;-65
2023/02/08 07:59:32;;;;;;;31.40;16.37;;;-3.20;1.00;;;;;;5035221;28;20578;-65
2023/02/08 08:02:00;;;;;;;31.17;17.37;;;-3.20;1.00;;;;;;5034133;28;20947;-65
2023/02/08 08:04:27;;;;;;;25.20;14.30;;;-3.10;1.00;;;;;;5034261;28;20500;-65
2023/02/08 08:06:56;;;;;;;18.40;12.63;;;-3.00;1.00;;;;;;5034056;28;20562;-65
2023/02/08 08:09:24;;;;;;;27.73;14.67;;;-2.90;1.00;;;;;;5032546;28;20523;-65
2023/02/08 08:11:51;;;;;;;28.10;15.30;;;-2.80;1.00;;;;;;5032795;28;20463;-64
2023/02/08 08:14:19;;;;;;;23.60;12.63;;;-2.50;1.00;;;;;;5032418;27;20544;-64
2023/02/08 08:16:46;;;;;;;25.33;13.80;;;-2.30;1.00;;;;;;5031412;28;20538;-64
2023/02/08 08:19:13;;;;;;;22.23;14.80;;;-2.20;1.00;;;;;;5033268;28;20593;-64
2023/02/08 08:21:41;;;;;;;24.20;14.17;;;-1.90;1.00;;;;;;5033028;28;20550;-64
2023/02/08 08:24:10;;;;;;;22.37;12.97;;;-1.60;1.00;;;;;;5032429;28;20467;-64
2023/02/08 08:26:37;;;;;;;19.40;11.00;;;-1.40;1.00;;;;;;5034709;28;20492;-65
2023/02/08 08:29:05;;;;;;;15.30;10.47;;;-1.00;1.00;;;;;;5036111;28;20551;-65
2023/02/08 08:31:32;;;;;;;18.20;9.63;;;-0.70;1.00;;;;;;5035878;28;20506;-65
2023/02/08 08:34:00;;;;;;;23.73;12.20;;;-0.40;1.00;;;;;;5035741;28;20519;-65
2023/02/08 08:36:27;;;;;;;21.20;11.90;;;-0.20;1.00;;;;;;5035266;28;20556;-64
2023/02/08 08:38:54;;;;;;;21.40;12.10;;;0.00;1.00;;;;;;5035915;28;21029;-63
2023/02/08 08:41:26;;;;;;;22.93;13.33;;;0.20;1.00;;;;;;5034229;28;20507;-61
2023/02/08 08:43:53;;;;;;;20.13;14.40;;;0.40;1.00;;;;;;5034271;28;20487;-60
2023/02/08 08:46:21;;;;;;;25.20;14.00;;;0.70;1.00;;;;;;5034680;28;20466;-60
2023/02/08 08:48:50;;;;;;;22.37;14.23;;;0.70;99.90;;;;;;5034459;28;20448;-59
2023/02/08 08:51:17;;;;;;;18.70;12.93;;;1.00;99.90;;;;;;5036420;28;20860;-61
2023/02/08 08:53:44;;;;;;;18.87;13.27;;;1.40;99.90;;;;;;5034710;28;20865;-60
2023/02/08 08:56:11;;;;;;;20.10;13.37;;;1.80;99.90;;;;;;5035094;28;20467;-60
2023/02/08 08:58:42;;;;;;;23.43;12.43;;;2.20;99.90;;;;;;5035380;28;21076;-60
2023/02/08 09:01:09;;;;;;;18.00;12.57;;;2.40;99.90;;;;;;5043880;27;20522;-60
2023/02/08 09:03:36;;;;;;;20.77;12.03;;;2.70;99.90;;;;;;5068900;27;20435;-60
2023/02/08 09:06:03;;;;;;;19.97;12.50;;;2.60;99.90;;;;;;5036674;28;20719;-60
2023/02/08 09:08:31;;;;;;;23.03;14.23;;;2.80;99.90;;;;;;5036157;28;20463;-61
2023/02/08 09:11:05;;;;;;;23.00;13.03;;;3.40;99.90;;;;;;5036424;28;20562;-62
2023/02/08 09:13:32;;;;;;;21.07;14.00;;;4.10;99.90;;;;;;5036277;28;20757;-62
2023/02/08 09:16:05;;;;;;;14.67;10.90;;;4.40;99.90;;;;;;5035633;28;20467;-63
2023/02/08 09:18:32;;;;;;;14.40;10.00;;;4.50;99.90;;;;;;5031296;28;20486;-62
2023/02/08 09:20:59;;;;;;;11.90;7.67;;;4.50;99.90;;;;;;5035927;28;20887;-62
2023/02/08 09:23:27;;;;;;;13.33;8.90;;;4.80;99.90;;;;;;5031618;28;20515;-62
2023/02/08 09:25:54;;;;;;;12.03;8.37;;;5.30;99.90;;;;;;5035941;28;20467;-62
2023/02/08 09:28:21;;;;;;;11.97;8.40;;;5.60;99.90;;;;;;5035972;28;20558;-62
2023/02/08 09:30:48;;;;;;;11.13;7.30;;;5.70;99.90;;;;;;5035790;28;20465;-62
2023/02/08 09:33:17;;;;;;;9.13;6.60;;;5.90;99.90;;;;;;5034649;28;20467;-62
2023/02/08 09:35:44;;;;;;;9.87;7.50;;;5.80;99.90;;;;;;5035917;28;20442;-62
2023/02/08 09:38:11;;;;;;;8.33;6.63;;;6.00;99.90;;;;;;5035578;28;20951;-62
2023/02/08 09:40:46;;;;;;;8.53;7.10;;;6.30;99.90;;;;;;5035899;28;20502;-62
2023/02/08 09:43:22;;;;;;;7.80;6.20;;;6.60;99.90;;;;;;5036213;28;20561;-62
2023/02/08 09:45:56;;;;;;;8.67;6.90;;;6.80;99.90;;;;;;5034657;28;20469;-59
2023/02/08 09:48:29;;;;;;;8.40;6.30;;;7.10;99.90;;;;;;5032179;28;20768;-61
2023/02/08 09:50:59;;;;;;;7.13;6.40;;;7.40;99.90;;;;;;5036117;28;20951;-60
2023/02/08 09:53:33;;;;;;;11.13;6.13;;;7.50;99.90;;;;;;5030352;28;21034;-61
2023/02/08 09:56:04;;;;;;;9.00;6.40;;;7.50;99.90;;;;;;5021156;28;20467;-60
2023/02/08 09:58:38;;;;;;;6.27;5.20;;;7.40;99.90;;;;;;5024457;28;20472;-61
2023/02/08 10:01:10;;;;;;;6.60;4.80;;;7.10;99.90;;;;;;5033107;28;20495;-59
2023/02/08 10:03:43;;;;;;;9.03;6.20;;;7.70;99.90;;;;;;5018577;28;20799;-61
2023/02/08 10:06:13;;;;;;;4.60;4.07;;;8.00;99.90;;;;;;5032537;28;20470;-61
2023/02/08 10:08:41;;;;;;;5.13;4.20;;;8.10;99.90;;;;;;5033265;28;20464;-59
2023/02/08 10:11:35;;;;;;;5.63;4.10;;;8.40;99.90;;;;;;5033032;28;20554;-57
2023/02/08 10:14:21;;;;;;;4.27;3.87;;;8.70;99.90;;;;;;5034247;28;20495;-59
2023/02/08 10:17:01;;;;;;;4.20;3.80;;;8.80;99.90;;;;;;5035697;28;20464;-59
2023/02/08 10:19:46;;;;;;;4.20;3.30;;;9.00;99.90;;;;;;5035936;28;20970;-60
2023/02/08 10:22:27;;;;;;;5.10;3.73;;;8.90;99.90;;;;;;5029531;28;20487;-60
2023/02/08 10:25:12;;;;;;;3.90;2.93;;;9.10;99.90;;;;;;5033584;28;20467;-60
2023/02/08 10:27:48;;;;;;;4.87;3.83;;;9.10;99.90;;;;;;5036041;28;20546;-59
2023/02/08 10:30:28;;;;;;;5.03;3.67;;;9.10;99.90;;;;;;5035607;28;20497;-59
2023/02/08 10:33:00;;;;;;;4.10;3.23;;;9.10;99.90;;;;;;5035463;28;20434;-59
2023/02/08 10:35:35;;;;;;;4.77;3.63;;;9.20;99.90;;;;;;5035397;28;20506;-60
2023/02/08 10:38:22;;;;;;;5.43;3.80;;;9.30;99.90;;;;;;5034998;28;20469;-59
2023/02/08 10:40:51;;;;;;;3.60;3.30;;;9.50;99.90;;;;;;5034574;28;20501;-59
2023/02/08 10:43:26;;;;;;;3.80;3.13;;;9.70;99.90;;;;;;5035881;28;20463;-61
2023/02/08 10:45:58;;;;;;;4.17;3.57;;;9.70;99.90;;;;;;5034944;28;20462;-59
2023/02/08 10:48:38;;;;;;;3.50;3.20;;;9.90;99.90;;;;;;5034189;28;20459;-60
2023/02/08 10:51:09;;;;;;;3.17;2.87;;;9.70;99.90;;;;;;5034959;28;20474;-56
2023/02/08 10:53:37;;;;;;;4.17;3.37;;;9.60;99.90;;;;;;5034749;28;20483;-59
2023/02/08 10:56:05;;;;;;;3.47;3.17;;;9.70;99.90;;;;;;5034139;28;20482;-60
2023/02/08 10:58:32;;;;;;;3.70;3.33;;;9.60;99.90;;;;;;5034378;28;20888;-61
2023/02/08 11:01:00;;;;;;;3.43;3.13;;;9.70;99.90;;;;;;5033301;28;20474;-60
2023/02/08 11:03:29;;;;;;;4.93;3.37;;;9.80;99.90;;;;;;5033933;28;20504;-60
2023/02/08 11:05:56;;;;;;;3.80;3.10;;;10.00;99.90;;;;;;5033339;28;20463;-60
2023/02/08 11:08:27;;;;;;;2.90;2.60;;;10.30;99.90;;;;;;5025484;28;20471;-60
2023/02/08 11:11:00;;;;;;;3.67;3.37;;;10.20;99.90;;;;;;5022478;28;20467;-60
2023/02/08 11:13:34;;;;;;;4.33;3.00;;;10.20;99.90;;;;;;5032253;28;20471;-59
2023/02/08 11:16:05;;;;;;;3.27;2.77;;;10.50;99.90;;;;;;5033549;28;20466;-62
2023/02/08 11:18:35;;;;;;;4.27;3.20;;;10.20;99.90;;;;;;5034156;28;20467;-60
2023/02/08 11:21:04;;;;;;;3.60;2.80;;;10.10;99.90;;;;;;5033912;28;20914;-60
2023/02/08 11:23:36;;;;;;;3.43;3.13;;;10.40;99.90;;;;;;5032810;28;20473;-60
2023/02/08 11:26:18;;;;;;;5.33;2.83;;;10.50;99.90;;;;;;5032677;28;20773;-60
2023/02/08 11:29:00;;;;;;;3.13;2.80;;;10.50;99.90;;;;;;5033349;28;20507;-60
2023/02/08 11:31:27;;;;;;;3.47;2.93;;;10.30;99.90;;;;;;5032737;28;20525;-60
2023/02/08 11:34:02;;;;;;;3.30;3.00;;;10.10;99.90;;;;;;5032689;28;20477;-60
2023/02/08 11:36:31;;;;;;;3.40;2.83;;;10.20;99.90;;;;;;5033690;28;20463;-59
2023/02/08 11:39:01;;;;;;;6.07;4.33;;;10.30;99.90;;;;;;5034404;28;20509;-61
2023/02/08 11:41:29;;;;;;;3.30;3.00;;;10.10;99.90;;;;;;5034204;28;20490;-60
2023/02/08 11:44:01;;;;;;;3.30;3.00;;;10.20;99.90;;;;;;5033675;28;20654;-59
2023/02/08 11:46:32;;;;;;;3.40;2.97;;;10.50;99.90;;;;;;5033924;28;20906;-60
2023/02/08 11:48:59;;;;;;;4.13;3.73;;;10.70;99.90;;;;;;5033873;28;20471;-56
2023/02/08 11:51:31;;;;;;;3.27;2.97;;;10.70;99.90;;;;;;5034236;28;20455;-59
2023/02/08 11:54:00;;;;;;;3.03;2.73;;;10.60;99.90;;;;;;5033408;28;20490;-59
2023/02/08 11:56:29;;;;;;;3.73;3.00;;;10.80;99.90;;;;;;5034098;28;20467;-59
2023/02/08 11:59:18;;;;;;;3.40;3.10;;;10.90;99.90;;;;;;5033886;28;20467;-60
2023/02/08 12:01:46;;;;;;;3.63;3.27;;;11.10;99.90;;;;;;5031986;28;20455;-60
2023/02/08 12:04:15;;;;;;;3.10;2.80;;;11.30;99.90;;;;;;5032768;28;20463;-58
2023/02/08 12:07:19;;;;;;;3.70;3.30;;;11.20;99.90;;;;;;5034204;28;20459;-59
2023/02/08 12:10:19;;;;;;;3.93;3.10;;;11.10;99.90;;;;;;5015578;28;20463;-59
2023/02/08 12:13:11;;;;;;;3.30;3.00;;;11.20;99.90;;;;;;5022712;28;20561;-60
2023/02/08 12:15:48;;;;;;;4.50;3.10;;;11.20;99.90;;;;;;5034233;28;20467;-61
2023/02/08 12:18:27;;;;;;;4.30;3.60;;;11.40;99.90;;;;;;5028032;28;20524;-60
2023/02/08 12:21:00;;;;;;;4.50;3.27;;;11.80;99.90;;;;;;5033496;28;20964;-61
2023/02/08 12:23:52;;;;;;;4.00;3.27;;;11.80;99.90;;;;;;5030775;28;20461;-60
2023/02/08 12:26:39;;;;;;;3.87;3.50;;;12.00;99.90;;;;;;5030863;28;20470;-59
2023/02/08 12:29:31;;;;;;;4.27;3.87;;;12.20;99.90;;;;;;5033211;28;20485;-58
2023/02/08 12:32:20;;;;;;;3.57;3.13;;;12.40;99.90;;;;;;5032761;28;20558;-60
2023/02/08 12:35:02;;;;;;;3.63;3.33;;;12.30;99.90;;;;;;5034264;28;20487;-61
2023/02/08 12:40:52;;;;;;;9.93;6.17;;;11.80;99.90;;;;;;5031651;28;20486;-61
2023/02/08 12:43:42;;;;;;;4.00;3.70;;;12.00;99.90;;;;;;5032952;28;20508;-59
2023/02/08 12:46:29;;;;;;;11.30;8.03;;;12.20;99.90;;;;;;5032488;28;20459;-60
2023/02/08 12:49:35;;;;;;;19.63;11.63;;;12.40;99.90;;;;;;5033555;28;20467;-61
2023/02/08 12:52:11;;;;;;;6.13;5.17;;;12.00;99.90;;;;;;5032576;28;20853;-61
2023/02/08 12:54:43;;;;;;;4.80;3.90;;;12.10;99.90;;;;;;5033230;28;20490;-61
2023/02/08 12:57:13;;;;;;;4.30;3.90;;;12.40;99.90;;;;;;5031480;28;20474;-62
2023/02/08 12:59:47;;;;;;;4.27;3.87;;;12.30;99.90;;;;;;5027178;28;20896;-62
2023/02/08 13:02:18;;;;;;;4.10;3.80;;;12.30;99.90;;;;;;5029717;28;20482;-62
2023/02/08 13:04:49;;;;;;;4.80;4.23;;;12.30;99.90;;;;;;5037921;28;20471;-62
2023/02/08 13:07:21;;;;;;;5.10;4.60;;;12.20;99.90;;;;;;5028276;28;20451;-61